Portada
METAR-TAF:

METAR-TAF

Aeroports :

Aeroport Internacional Diori Hamani

Niamey, Níger

latitud: 13-29N, longitud: 002-10E, altitud: 223 m

Observació

L'informe es va fer fa 25 minuts, a les 03:00 UTC
Vent 8 kt del Sud/Sud-Oest
Temperatura 30°C
Humitat 55%
Pressió 1010 hPa
Visibilitat 10 km o més
sense núvols per sota de 1500 mi sense presència de cumulonimbus.

METAR: DRRN 270300Z 21008KT CAVOK 30/20 Q1010 NOSIG

Hora: 04:25 (03:25 UTC)

Pronòstic

L'informe es va fer fa 4 hores i 25 minuts, a les 23:00 UTC
Pronòstic vàlid del 27 a les 00 UTC al 28 a les 06 UTC
Vent 8 kt del Sud-Oest
Visibilitat: 8000 m
Probabilitat 40% :
Temporalment
l' 27 a les 15 UTC al 27 a les 20 UTC
Visibilitat: 4000 m
Escasses núvols a una alçada de 4000 ft, Cumulonimbus.
Pols estès, tempesta

TAF: DRRN 262300Z 2700/2806 22008KT 8000 NSC PROB40 TEMPO 2715/2720 4000 DU TS FEW040CB

Observacions i pronòstics meteorològics de més de 4000 aeroports (METAR i TAF).

Les estacions disponibles són els punts grocs i vermells al mapa.

Posi el ratolí al punt desitjat per veure el nom de l'estació.

Feu clic per veure les observacions i els pronòstics meteorològics.

Per canviar el mapa: feu clic els botons verds amb una creu de color negre per apropar; al botó verd amb un guió per allunyar la imatge; o en les fletxes verdes per a mapes adjacents.


METAR-TAF: